sensor_id;sensor_type;location;lat;lon;timestamp;P1;durP1;ratioP1;P2;durP2;ratioP2
56427;SDS011;42331;53.578;9.760;2023-05-10T00:01:06;4.95;;;2.30;;
56427;SDS011;42331;53.578;9.760;2023-05-10T00:03:37;6.28;;;2.40;;
56427;SDS011;42331;53.578;9.760;2023-05-10T00:06:08;4.80;;;2.10;;
56427;SDS011;42331;53.578;9.760;2023-05-10T00:08:39;6.05;;;2.40;;
56427;SDS011;42331;53.578;9.760;2023-05-10T00:11:09;7.70;;;2.35;;
56427;SDS011;42331;53.578;9.760;2023-05-10T00:13:40;10.13;;;2.78;;
56427;SDS011;42331;53.578;9.760;2023-05-10T00:16:11;4.25;;;2.22;;
56427;SDS011;42331;53.578;9.760;2023-05-10T00:21:13;4.82;;;2.42;;
56427;SDS011;42331;53.578;9.760;2023-05-10T00:23:44;5.03;;;2.15;;
56427;SDS011;42331;53.578;9.760;2023-05-10T00:26:15;6.32;;;2.63;;
56427;SDS011;42331;53.578;9.760;2023-05-10T00:28:46;7.28;;;2.78;;
56427;SDS011;42331;53.578;9.760;2023-05-10T00:31:17;10.60;;;3.15;;
56427;SDS011;42331;53.578;9.760;2023-05-10T00:33:48;5.55;;;2.80;;
56427;SDS011;42331;53.578;9.760;2023-05-10T00:36:19;6.32;;;2.85;;
56427;SDS011;42331;53.578;9.760;2023-05-10T00:38:50;5.93;;;2.53;;
56427;SDS011;42331;53.578;9.760;2023-05-10T00:41:21;6.85;;;2.60;;
56427;SDS011;42331;53.578;9.760;2023-05-10T00:43:52;9.30;;;2.30;;
56427;SDS011;42331;53.578;9.760;2023-05-10T00:46:22;5.47;;;2.30;;
56427;SDS011;42331;53.578;9.760;2023-05-10T00:48:53;4.25;;;2.55;;
56427;SDS011;42331;53.578;9.760;2023-05-10T00:51:24;5.30;;;2.63;;
56427;SDS011;42331;53.578;9.760;2023-05-10T00:53:55;9.00;;;2.63;;
56427;SDS011;42331;53.578;9.760;2023-05-10T00:56:27;6.88;;;2.50;;
56427;SDS011;42331;53.578;9.760;2023-05-10T00:58:59;10.25;;;2.40;;
56427;SDS011;42331;53.578;9.760;2023-05-10T01:01:30;5.25;;;2.60;;
56427;SDS011;42331;53.578;9.760;2023-05-10T01:04:01;8.82;;;2.95;;
56427;SDS011;42331;53.578;9.760;2023-05-10T01:06:33;6.90;;;2.70;;
56427;SDS011;42331;53.578;9.760;2023-05-10T01:09:03;7.82;;;2.70;;
56427;SDS011;42331;53.578;9.760;2023-05-10T01:11:34;4.10;;;2.55;;
56427;SDS011;42331;53.578;9.760;2023-05-10T01:14:06;7.45;;;2.90;;
56427;SDS011;42331;53.578;9.760;2023-05-10T01:16:38;5.38;;;2.60;;
56427;SDS011;42331;53.578;9.760;2023-05-10T01:19:12;8.38;;;2.67;;
56427;SDS011;42331;53.578;9.760;2023-05-10T01:25:17;10.43;;;3.08;;
56427;SDS011;42331;53.578;9.760;2023-05-10T01:34:23;6.05;;;2.70;;
56427;SDS011;42331;53.578;9.760;2023-05-10T01:37:07;4.32;;;2.40;;
56427;SDS011;42331;53.578;9.760;2023-05-10T01:39:44;7.15;;;2.90;;
56427;SDS011;42331;53.578;9.760;2023-05-10T01:42:23;5.68;;;3.15;;
56427;SDS011;42331;53.578;9.760;2023-05-10T01:45:00;7.35;;;2.88;;
56427;SDS011;42331;53.578;9.760;2023-05-10T01:47:44;7.22;;;3.20;;
56427;SDS011;42331;53.578;9.760;2023-05-10T01:50:22;9.00;;;2.90;;
56427;SDS011;42331;53.578;9.760;2023-05-10T01:52:59;8.23;;;3.00;;
56427;SDS011;42331;53.578;9.760;2023-05-10T01:55:32;6.70;;;2.63;;
56427;SDS011;42331;53.578;9.760;2023-05-10T01:58:31;6.88;;;3.05;;
56427;SDS011;42331;53.578;9.760;2023-05-10T02:01:04;7.13;;;2.97;;
56427;SDS011;42331;53.578;9.760;2023-05-10T02:03:37;9.60;;;3.45;;
56427;SDS011;42331;53.578;9.760;2023-05-10T02:06:10;6.25;;;3.15;;
56427;SDS011;42331;53.578;9.760;2023-05-10T02:08:42;8.15;;;3.10;;
56427;SDS011;42331;53.578;9.760;2023-05-10T02:11:16;5.90;;;2.88;;
56427;SDS011;42331;53.578;9.760;2023-05-10T02:13:49;4.88;;;2.70;;
56427;SDS011;42331;53.578;9.760;2023-05-10T02:16:23;5.68;;;2.78;;
56427;SDS011;42331;53.578;9.760;2023-05-10T02:18:56;5.50;;;2.47;;
56427;SDS011;42331;53.578;9.760;2023-05-10T02:21:29;5.88;;;2.75;;
56427;SDS011;42331;53.578;9.760;2023-05-10T02:24:02;5.28;;;3.03;;
56427;SDS011;42331;53.578;9.760;2023-05-10T02:26:35;6.88;;;2.85;;
56427;SDS011;42331;53.578;9.760;2023-05-10T02:29:07;6.22;;;3.00;;
56427;SDS011;42331;53.578;9.760;2023-05-10T02:34:13;7.20;;;2.97;;
56427;SDS011;42331;53.578;9.760;2023-05-10T02:36:44;5.93;;;3.10;;
56427;SDS011;42331;53.578;9.760;2023-05-10T02:39:16;8.52;;;3.03;;
56427;SDS011;42331;53.578;9.760;2023-05-10T02:41:50;9.05;;;2.95;;
56427;SDS011;42331;53.578;9.760;2023-05-10T02:44:22;7.90;;;3.03;;
56427;SDS011;42331;53.578;9.760;2023-05-10T02:46:53;5.35;;;2.72;;
56427;SDS011;42331;53.578;9.760;2023-05-10T02:49:26;4.63;;;2.45;;
56427;SDS011;42331;53.578;9.760;2023-05-10T02:51:58;7.95;;;3.08;;
56427;SDS011;42331;53.578;9.760;2023-05-10T02:54:34;4.18;;;2.55;;
56427;SDS011;42331;53.578;9.760;2023-05-10T02:57:15;4.75;;;2.78;;
56427;SDS011;42331;53.578;9.760;2023-05-10T02:59:49;5.88;;;2.92;;
56427;SDS011;42331;53.578;9.760;2023-05-10T03:02:20;6.05;;;2.95;;
56427;SDS011;42331;53.578;9.760;2023-05-10T03:04:51;5.20;;;2.80;;
56427;SDS011;42331;53.578;9.760;2023-05-10T03:07:21;5.70;;;3.28;;
56427;SDS011;42331;53.578;9.760;2023-05-10T03:09:53;6.32;;;2.97;;
56427;SDS011;42331;53.578;9.760;2023-05-10T03:12:31;5.40;;;3.30;;
56427;SDS011;42331;53.578;9.760;2023-05-10T03:17:54;7.05;;;3.15;;
56427;SDS011;42331;53.578;9.760;2023-05-10T03:20:38;6.22;;;3.03;;
56427;SDS011;42331;53.578;9.760;2023-05-10T03:23:19;7.15;;;3.15;;
56427;SDS011;42331;53.578;9.760;2023-05-10T03:25:54;6.68;;;3.28;;
56427;SDS011;42331;53.578;9.760;2023-05-10T03:28:25;4.73;;;2.80;;
56427;SDS011;42331;53.578;9.760;2023-05-10T03:30:59;5.45;;;3.20;;
56427;SDS011;42331;53.578;9.760;2023-05-10T03:33:30;5.80;;;2.97;;
56427;SDS011;42331;53.578;9.760;2023-05-10T03:36:01;10.43;;;3.65;;
56427;SDS011;42331;53.578;9.760;2023-05-10T03:38:32;6.50;;;3.30;;
56427;SDS011;42331;53.578;9.760;2023-05-10T03:41:03;6.72;;;3.35;;
56427;SDS011;42331;53.578;9.760;2023-05-10T03:43:34;10.18;;;2.90;;
56427;SDS011;42331;53.578;9.760;2023-05-10T03:46:05;9.50;;;3.22;;
56427;SDS011;42331;53.578;9.760;2023-05-10T03:48:36;8.30;;;3.10;;
56427;SDS011;42331;53.578;9.760;2023-05-10T03:51:06;8.15;;;3.40;;
56427;SDS011;42331;53.578;9.760;2023-05-10T03:53:37;8.45;;;3.35;;
56427;SDS011;42331;53.578;9.760;2023-05-10T03:56:08;5.72;;;3.35;;
56427;SDS011;42331;53.578;9.760;2023-05-10T03:58:38;9.27;;;3.85;;
56427;SDS011;42331;53.578;9.760;2023-05-10T04:01:09;8.00;;;3.10;;
56427;SDS011;42331;53.578;9.760;2023-05-10T04:03:40;7.55;;;3.42;;
56427;SDS011;42331;53.578;9.760;2023-05-10T04:06:11;11.57;;;3.92;;
56427;SDS011;42331;53.578;9.760;2023-05-10T04:08:42;4.57;;;2.83;;
56427;SDS011;42331;53.578;9.760;2023-05-10T04:11:12;7.18;;;3.22;;
56427;SDS011;42331;53.578;9.760;2023-05-10T04:13:44;7.07;;;3.45;;
56427;SDS011;42331;53.578;9.760;2023-05-10T04:16:14;7.30;;;3.78;;
56427;SDS011;42331;53.578;9.760;2023-05-10T04:18:45;9.35;;;3.40;;
56427;SDS011;42331;53.578;9.760;2023-05-10T04:21:16;7.38;;;3.03;;
56427;SDS011;42331;53.578;9.760;2023-05-10T04:23:46;5.07;;;3.20;;
56427;SDS011;42331;53.578;9.760;2023-05-10T04:26:17;8.20;;;3.53;;
56427;SDS011;42331;53.578;9.760;2023-05-10T04:28:48;6.68;;;3.60;;
56427;SDS011;42331;53.578;9.760;2023-05-10T04:31:18;5.38;;;3.45;;
56427;SDS011;42331;53.578;9.760;2023-05-10T04:33:49;12.38;;;3.65;;
56427;SDS011;42331;53.578;9.760;2023-05-10T04:36:20;4.20;;;2.38;;
56427;SDS011;42331;53.578;9.760;2023-05-10T04:38:51;7.03;;;3.60;;
56427;SDS011;42331;53.578;9.760;2023-05-10T04:41:21;5.68;;;3.15;;
56427;SDS011;42331;53.578;9.760;2023-05-10T04:43:52;9.02;;;3.58;;
56427;SDS011;42331;53.578;9.760;2023-05-10T04:46:23;7.78;;;3.38;;
56427;SDS011;42331;53.578;9.760;2023-05-10T04:48:53;5.38;;;3.67;;
56427;SDS011;42331;53.578;9.760;2023-05-10T04:51:24;6.22;;;3.03;;
56427;SDS011;42331;53.578;9.760;2023-05-10T04:53:55;7.60;;;3.30;;
56427;SDS011;42331;53.578;9.760;2023-05-10T04:56:25;9.40;;;3.40;;
56427;SDS011;42331;53.578;9.760;2023-05-10T04:58:56;11.15;;;3.60;;
56427;SDS011;42331;53.578;9.760;2023-05-10T05:01:27;9.27;;;3.70;;
56427;SDS011;42331;53.578;9.760;2023-05-10T05:03:58;7.72;;;3.33;;
56427;SDS011;42331;53.578;9.760;2023-05-10T05:06:29;7.72;;;2.83;;
56427;SDS011;42331;53.578;9.760;2023-05-10T05:09:00;6.65;;;3.20;;
56427;SDS011;42331;53.578;9.760;2023-05-10T05:11:30;5.60;;;3.15;;
56427;SDS011;42331;53.578;9.760;2023-05-10T05:14:01;6.50;;;3.47;;
56427;SDS011;42331;53.578;9.760;2023-05-10T05:16:32;5.97;;;3.05;;
56427;SDS011;42331;53.578;9.760;2023-05-10T05:19:05;11.38;;;3.35;;
56427;SDS011;42331;53.578;9.760;2023-05-10T05:21:36;9.05;;;3.33;;
56427;SDS011;42331;53.578;9.760;2023-05-10T05:24:06;4.85;;;2.97;;
56427;SDS011;42331;53.578;9.760;2023-05-10T05:26:37;7.75;;;3.45;;
56427;SDS011;42331;53.578;9.760;2023-05-10T05:29:13;7.75;;;3.33;;
56427;SDS011;42331;53.578;9.760;2023-05-10T05:31:44;6.90;;;3.47;;
56427;SDS011;42331;53.578;9.760;2023-05-10T05:34:15;9.63;;;3.80;;
56427;SDS011;42331;53.578;9.760;2023-05-10T05:36:46;6.60;;;3.60;;
56427;SDS011;42331;53.578;9.760;2023-05-10T05:39:16;8.25;;;3.00;;
56427;SDS011;42331;53.578;9.760;2023-05-10T05:41:47;9.15;;;3.30;;
56427;SDS011;42331;53.578;9.760;2023-05-10T05:44:18;9.45;;;3.10;;
56427;SDS011;42331;53.578;9.760;2023-05-10T05:46:48;10.13;;;3.50;;
56427;SDS011;42331;53.578;9.760;2023-05-10T05:49:19;6.70;;;3.22;;
56427;SDS011;42331;53.578;9.760;2023-05-10T05:51:50;7.63;;;3.53;;
56427;SDS011;42331;53.578;9.760;2023-05-10T05:54:20;7.35;;;3.53;;
56427;SDS011;42331;53.578;9.760;2023-05-10T05:56:53;6.70;;;3.35;;
56427;SDS011;42331;53.578;9.760;2023-05-10T05:59:25;5.70;;;3.35;;
56427;SDS011;42331;53.578;9.760;2023-05-10T06:01:56;5.07;;;3.20;;
56427;SDS011;42331;53.578;9.760;2023-05-10T06:04:27;6.28;;;3.28;;
56427;SDS011;42331;53.578;9.760;2023-05-10T06:06:57;5.95;;;3.85;;
56427;SDS011;42331;53.578;9.760;2023-05-10T06:09:28;10.90;;;3.30;;
56427;SDS011;42331;53.578;9.760;2023-05-10T06:11:59;6.30;;;3.00;;
56427;SDS011;42331;53.578;9.760;2023-05-10T06:14:29;6.65;;;3.17;;
56427;SDS011;42331;53.578;9.760;2023-05-10T06:17:00;7.15;;;3.00;;
56427;SDS011;42331;53.578;9.760;2023-05-10T06:19:33;7.72;;;3.20;;
56427;SDS011;42331;53.578;9.760;2023-05-10T06:22:04;6.18;;;3.50;;
56427;SDS011;42331;53.578;9.760;2023-05-10T06:24:35;6.32;;;3.15;;
56427;SDS011;42331;53.578;9.760;2023-05-10T06:27:06;6.35;;;3.40;;
56427;SDS011;42331;53.578;9.760;2023-05-10T06:29:36;5.65;;;3.13;;
56427;SDS011;42331;53.578;9.760;2023-05-10T06:32:07;7.35;;;3.70;;
56427;SDS011;42331;53.578;9.760;2023-05-10T06:34:38;7.83;;;3.50;;
56427;SDS011;42331;53.578;9.760;2023-05-10T06:37:08;4.53;;;2.97;;
56427;SDS011;42331;53.578;9.760;2023-05-10T06:39:39;5.35;;;3.30;;
56427;SDS011;42331;53.578;9.760;2023-05-10T06:42:10;9.43;;;3.20;;
56427;SDS011;42331;53.578;9.760;2023-05-10T06:44:41;5.20;;;2.60;;
56427;SDS011;42331;53.578;9.760;2023-05-10T06:47:11;7.68;;;3.33;;
56427;SDS011;42331;53.578;9.760;2023-05-10T06:49:42;10.15;;;3.65;;
56427;SDS011;42331;53.578;9.760;2023-05-10T06:52:13;9.30;;;3.10;;
56427;SDS011;42331;53.578;9.760;2023-05-10T06:54:44;7.18;;;2.35;;
56427;SDS011;42331;53.578;9.760;2023-05-10T06:57:14;6.53;;;3.22;;
56427;SDS011;42331;53.578;9.760;2023-05-10T06:59:45;4.30;;;2.38;;
56427;SDS011;42331;53.578;9.760;2023-05-10T07:02:16;5.47;;;3.20;;
56427;SDS011;42331;53.578;9.760;2023-05-10T07:04:47;6.68;;;3.20;;
56427;SDS011;42331;53.578;9.760;2023-05-10T07:07:18;5.43;;;3.00;;
56427;SDS011;42331;53.578;9.760;2023-05-10T07:09:49;5.20;;;2.33;;
56427;SDS011;42331;53.578;9.760;2023-05-10T07:12:20;4.72;;;2.80;;
56427;SDS011;42331;53.578;9.760;2023-05-10T07:14:50;6.82;;;3.22;;
56427;SDS011;42331;53.578;9.760;2023-05-10T07:17:21;5.55;;;2.83;;
56427;SDS011;42331;53.578;9.760;2023-05-10T07:19:52;8.80;;;3.40;;
56427;SDS011;42331;53.578;9.760;2023-05-10T07:22:22;8.85;;;3.05;;
56427;SDS011;42331;53.578;9.760;2023-05-10T07:24:53;6.90;;;2.83;;
56427;SDS011;42331;53.578;9.760;2023-05-10T07:27:24;7.88;;;3.20;;
56427;SDS011;42331;53.578;9.760;2023-05-10T07:29:55;7.50;;;3.20;;
56427;SDS011;42331;53.578;9.760;2023-05-10T07:32:26;5.93;;;2.95;;
56427;SDS011;42331;53.578;9.760;2023-05-10T07:34:57;4.05;;;2.08;;
56427;SDS011;42331;53.578;9.760;2023-05-10T07:37:27;8.32;;;2.80;;
56427;SDS011;42331;53.578;9.760;2023-05-10T07:39:58;5.67;;;2.90;;
56427;SDS011;42331;53.578;9.760;2023-05-10T07:42:29;5.70;;;2.90;;
56427;SDS011;42331;53.578;9.760;2023-05-10T07:44:59;6.65;;;2.88;;
56427;SDS011;42331;53.578;9.760;2023-05-10T07:47:30;8.05;;;2.78;;
56427;SDS011;42331;53.578;9.760;2023-05-10T07:50:01;6.03;;;3.00;;
56427;SDS011;42331;53.578;9.760;2023-05-10T07:52:31;7.20;;;2.90;;
56427;SDS011;42331;53.578;9.760;2023-05-10T07:55:02;5.50;;;2.92;;
56427;SDS011;42331;53.578;9.760;2023-05-10T07:57:33;11.63;;;2.93;;
56427;SDS011;42331;53.578;9.760;2023-05-10T08:00:04;4.80;;;3.00;;
56427;SDS011;42331;53.578;9.760;2023-05-10T08:05:07;9.45;;;2.90;;
56427;SDS011;42331;53.578;9.760;2023-05-10T08:07:38;7.25;;;3.20;;
56427;SDS011;42331;53.578;9.760;2023-05-10T08:10:09;4.87;;;2.77;;
56427;SDS011;42331;53.578;9.760;2023-05-10T08:12:41;5.63;;;3.15;;
56427;SDS011;42331;53.578;9.760;2023-05-10T08:15:11;8.50;;;3.58;;
56427;SDS011;42331;53.578;9.760;2023-05-10T08:17:42;4.68;;;3.10;;
56427;SDS011;42331;53.578;9.760;2023-05-10T08:20:13;6.05;;;3.25;;
56427;SDS011;42331;53.578;9.760;2023-05-10T08:22:46;7.25;;;3.55;;
56427;SDS011;42331;53.578;9.760;2023-05-10T08:25:17;4.95;;;3.22;;
56427;SDS011;42331;53.578;9.760;2023-05-10T08:27:51;6.10;;;3.55;;
56427;SDS011;42331;53.578;9.760;2023-05-10T08:30:21;9.32;;;3.30;;
56427;SDS011;42331;53.578;9.760;2023-05-10T08:32:52;5.90;;;3.25;;
56427;SDS011;42331;53.578;9.760;2023-05-10T08:35:23;10.85;;;4.05;;
56427;SDS011;42331;53.578;9.760;2023-05-10T08:37:54;4.10;;;2.73;;
56427;SDS011;42331;53.578;9.760;2023-05-10T08:40:25;7.18;;;4.00;;
56427;SDS011;42331;53.578;9.760;2023-05-10T08:43:06;6.97;;;3.75;;
56427;SDS011;42331;53.578;9.760;2023-05-10T08:48:10;5.20;;;2.57;;
56427;SDS011;42331;53.578;9.760;2023-05-10T08:50:42;5.68;;;3.83;;
56427;SDS011;42331;53.578;9.760;2023-05-10T08:53:15;9.20;;;3.92;;
56427;SDS011;42331;53.578;9.760;2023-05-10T08:55:46;10.00;;;4.15;;
56427;SDS011;42331;53.578;9.760;2023-05-10T08:58:17;6.43;;;3.88;;
56427;SDS011;42331;53.578;9.760;2023-05-10T09:00:49;5.50;;;4.05;;
56427;SDS011;42331;53.578;9.760;2023-05-10T09:03:23;7.70;;;3.97;;
56427;SDS011;42331;53.578;9.760;2023-05-10T09:05:53;8.65;;;4.63;;
56427;SDS011;42331;53.578;9.760;2023-05-10T09:10:56;6.68;;;4.38;;
56427;SDS011;42331;53.578;9.760;2023-05-10T09:13:27;10.35;;;4.40;;
56427;SDS011;42331;53.578;9.760;2023-05-10T09:15:59;9.93;;;4.38;;
56427;SDS011;42331;53.578;9.760;2023-05-10T09:18:31;9.30;;;4.43;;
56427;SDS011;42331;53.578;9.760;2023-05-10T09:21:01;6.57;;;4.45;;
56427;SDS011;42331;53.578;9.760;2023-05-10T09:23:32;7.78;;;3.90;;
56427;SDS011;42331;53.578;9.760;2023-05-10T09:26:06;7.05;;;4.47;;
56427;SDS011;42331;53.578;9.760;2023-05-10T09:28:50;11.23;;;4.35;;
56427;SDS011;42331;53.578;9.760;2023-05-10T09:34:18;7.00;;;4.50;;
56427;SDS011;42331;53.578;9.760;2023-05-10T09:36:51;9.32;;;5.03;;
56427;SDS011;42331;53.578;9.760;2023-05-10T09:42:04;6.32;;;4.57;;
56427;SDS011;42331;53.578;9.760;2023-05-10T09:44:36;10.63;;;5.22;;
56427;SDS011;42331;53.578;9.760;2023-05-10T09:47:08;8.52;;;5.40;;
56427;SDS011;42331;53.578;9.760;2023-05-10T09:49:39;9.50;;;5.63;;
56427;SDS011;42331;53.578;9.760;2023-05-10T09:52:11;10.75;;;6.13;;
56427;SDS011;42331;53.578;9.760;2023-05-10T09:54:45;7.30;;;5.70;;
56427;SDS011;42331;53.578;9.760;2023-05-10T09:57:24;10.27;;;6.55;;
56427;SDS011;42331;53.578;9.760;2023-05-10T09:59:56;7.90;;;6.32;;
56427;SDS011;42331;53.578;9.760;2023-05-10T10:02:30;8.45;;;6.00;;
56427;SDS011;42331;53.578;9.760;2023-05-10T10:05:02;9.18;;;6.68;;
56427;SDS011;42331;53.578;9.760;2023-05-10T10:10:05;9.55;;;6.20;;
56427;SDS011;42331;53.578;9.760;2023-05-10T10:12:41;10.40;;;7.32;;
56427;SDS011;42331;53.578;9.760;2023-05-10T10:15:12;12.98;;;7.78;;
56427;SDS011;42331;53.578;9.760;2023-05-10T10:17:43;9.83;;;6.83;;
56427;SDS011;42331;53.578;9.760;2023-05-10T10:20:17;10.32;;;7.70;;
56427;SDS011;42331;53.578;9.760;2023-05-10T10:22:48;12.13;;;8.65;;
56427;SDS011;42331;53.578;9.760;2023-05-10T10:25:20;10.82;;;7.72;;
56427;SDS011;42331;53.578;9.760;2023-05-10T10:27:58;11.50;;;7.88;;
56427;SDS011;42331;53.578;9.760;2023-05-10T10:30:42;11.70;;;8.20;;
56427;SDS011;42331;53.578;9.760;2023-05-10T10:35:52;10.73;;;7.60;;
56427;SDS011;42331;53.578;9.760;2023-05-10T10:38:24;13.25;;;8.23;;
56427;SDS011;42331;53.578;9.760;2023-05-10T10:41:02;12.32;;;7.68;;
56427;SDS011;42331;53.578;9.760;2023-05-10T10:43:37;10.88;;;7.47;;
56427;SDS011;42331;53.578;9.760;2023-05-10T10:46:12;9.82;;;8.20;;
56427;SDS011;42331;53.578;9.760;2023-05-10T10:48:48;11.20;;;8.85;;
56427;SDS011;42331;53.578;9.760;2023-05-10T10:51:21;12.15;;;8.40;;
56427;SDS011;42331;53.578;9.760;2023-05-10T10:53:52;10.50;;;8.30;;
56427;SDS011;42331;53.578;9.760;2023-05-10T10:56:24;13.68;;;9.18;;
56427;SDS011;42331;53.578;9.760;2023-05-10T10:58:56;11.80;;;8.82;;
56427;SDS011;42331;53.578;9.760;2023-05-10T11:01:33;14.68;;;10.05;;
56427;SDS011;42331;53.578;9.760;2023-05-10T11:06:38;15.00;;;10.00;;
56427;SDS011;42331;53.578;9.760;2023-05-10T11:11:51;12.00;;;9.35;;
56427;SDS011;42331;53.578;9.760;2023-05-10T11:14:25;14.70;;;10.10;;
56427;SDS011;42331;53.578;9.760;2023-05-10T11:16:56;13.47;;;10.20;;
56427;SDS011;42331;53.578;9.760;2023-05-10T11:19:27;13.98;;;9.95;;
56427;SDS011;42331;53.578;9.760;2023-05-10T11:24:35;13.05;;;9.35;;
56427;SDS011;42331;53.578;9.760;2023-05-10T11:27:06;13.85;;;10.73;;
56427;SDS011;42331;53.578;9.760;2023-05-10T11:29:37;11.23;;;9.23;;
56427;SDS011;42331;53.578;9.760;2023-05-10T11:32:07;14.27;;;10.02;;
56427;SDS011;42331;53.578;9.760;2023-05-10T11:34:38;12.93;;;9.60;;
56427;SDS011;42331;53.578;9.760;2023-05-10T11:37:09;13.73;;;9.73;;
56427;SDS011;42331;53.578;9.760;2023-05-10T11:39:45;17.10;;;10.23;;
56427;SDS011;42331;53.578;9.760;2023-05-10T11:42:17;12.13;;;9.23;;
56427;SDS011;42331;53.578;9.760;2023-05-10T11:44:47;12.10;;;9.25;;
56427;SDS011;42331;53.578;9.760;2023-05-10T11:47:18;13.68;;;8.95;;
56427;SDS011;42331;53.578;9.760;2023-05-10T11:49:50;13.50;;;9.27;;
56427;SDS011;42331;53.578;9.760;2023-05-10T11:52:22;16.08;;;10.45;;
56427;SDS011;42331;53.578;9.760;2023-05-10T11:54:54;14.73;;;10.32;;
56427;SDS011;42331;53.578;9.760;2023-05-10T11:57:28;12.57;;;9.75;;
56427;SDS011;42331;53.578;9.760;2023-05-10T11:59:59;12.27;;;9.95;;
56427;SDS011;42331;53.578;9.760;2023-05-10T12:02:30;11.65;;;9.80;;
56427;SDS011;42331;53.578;9.760;2023-05-10T12:05:01;11.20;;;9.03;;
56427;SDS011;42331;53.578;9.760;2023-05-10T12:07:33;13.80;;;9.02;;
56427;SDS011;42331;53.578;9.760;2023-05-10T12:10:11;11.98;;;8.88;;
56427;SDS011;42331;53.578;9.760;2023-05-10T12:12:51;11.05;;;8.57;;
56427;SDS011;42331;53.578;9.760;2023-05-10T12:15:23;11.27;;;8.98;;
56427;SDS011;42331;53.578;9.760;2023-05-10T12:18:08;12.15;;;9.02;;
56427;SDS011;42331;53.578;9.760;2023-05-10T12:20:40;13.57;;;8.23;;
56427;SDS011;42331;53.578;9.760;2023-05-10T12:23:23;11.95;;;9.30;;
56427;SDS011;42331;53.578;9.760;2023-05-10T12:26:17;10.73;;;7.60;;
56427;SDS011;42331;53.578;9.760;2023-05-10T12:28:54;9.38;;;7.60;;
56427;SDS011;42331;53.578;9.760;2023-05-10T12:31:58;10.95;;;8.65;;
56427;SDS011;42331;53.578;9.760;2023-05-10T12:34:30;11.95;;;7.88;;
56427;SDS011;42331;53.578;9.760;2023-05-10T12:37:06;9.48;;;7.20;;
56427;SDS011;42331;53.578;9.760;2023-05-10T12:39:41;11.32;;;8.32;;
56427;SDS011;42331;53.578;9.760;2023-05-10T12:42:13;7.65;;;5.95;;
56427;SDS011;42331;53.578;9.760;2023-05-10T12:44:44;8.68;;;6.95;;
56427;SDS011;42331;53.578;9.760;2023-05-10T12:47:14;8.33;;;6.60;;
56427;SDS011;42331;53.578;9.760;2023-05-10T12:49:45;8.80;;;6.90;;
56427;SDS011;42331;53.578;9.760;2023-05-10T12:52:16;8.23;;;6.45;;
56427;SDS011;42331;53.578;9.760;2023-05-10T12:54:47;6.78;;;5.95;;
56427;SDS011;42331;53.578;9.760;2023-05-10T12:57:17;8.30;;;5.23;;
56427;SDS011;42331;53.578;9.760;2023-05-10T12:59:48;5.22;;;4.15;;
56427;SDS011;42331;53.578;9.760;2023-05-10T13:02:19;8.02;;;5.80;;
56427;SDS011;42331;53.578;9.760;2023-05-10T13:04:51;7.05;;;5.70;;
56427;SDS011;42331;53.578;9.760;2023-05-10T13:07:22;8.32;;;6.18;;
56427;SDS011;42331;53.578;9.760;2023-05-10T13:09:52;7.20;;;5.78;;
56427;SDS011;42331;53.578;9.760;2023-05-10T13:12:23;6.40;;;5.32;;
56427;SDS011;42331;53.578;9.760;2023-05-10T13:14:54;8.93;;;6.47;;
56427;SDS011;42331;53.578;9.760;2023-05-10T13:17:25;7.57;;;6.13;;
56427;SDS011;42331;53.578;9.760;2023-05-10T13:19:56;6.72;;;5.95;;
56427;SDS011;42331;53.578;9.760;2023-05-10T13:22:26;8.57;;;6.37;;
56427;SDS011;42331;53.578;9.760;2023-05-10T13:24:57;8.05;;;6.38;;
56427;SDS011;42331;53.578;9.760;2023-05-10T13:27:28;6.22;;;5.25;;
56427;SDS011;42331;53.578;9.760;2023-05-10T13:29:58;6.57;;;5.43;;
56427;SDS011;42331;53.578;9.760;2023-05-10T13:32:29;6.85;;;5.43;;
56427;SDS011;42331;53.578;9.760;2023-05-10T13:35:00;7.20;;;5.80;;
56427;SDS011;42331;53.578;9.760;2023-05-10T13:37:33;7.07;;;5.88;;
56427;SDS011;42331;53.578;9.760;2023-05-10T13:40:07;7.07;;;5.63;;
56427;SDS011;42331;53.578;9.760;2023-05-10T13:42:38;6.37;;;5.47;;
56427;SDS011;42331;53.578;9.760;2023-05-10T13:45:09;7.40;;;5.63;;
56427;SDS011;42331;53.578;9.760;2023-05-10T13:47:42;6.18;;;5.03;;
56427;SDS011;42331;53.578;9.760;2023-05-10T13:50:13;8.40;;;5.77;;
56427;SDS011;42331;53.578;9.760;2023-05-10T13:52:44;6.68;;;5.97;;
56427;SDS011;42331;53.578;9.760;2023-05-10T13:55:14;7.10;;;6.03;;
56427;SDS011;42331;53.578;9.760;2023-05-10T13:57:45;7.68;;;6.32;;
56427;SDS011;42331;53.578;9.760;2023-05-10T14:00:16;7.93;;;6.00;;
56427;SDS011;42331;53.578;9.760;2023-05-10T14:02:47;6.38;;;4.85;;
56427;SDS011;42331;53.578;9.760;2023-05-10T14:05:18;9.30;;;6.80;;
56427;SDS011;42331;53.578;9.760;2023-05-10T14:07:49;7.63;;;6.63;;
56427;SDS011;42331;53.578;9.760;2023-05-10T14:10:20;8.07;;;6.78;;
56427;SDS011;42331;53.578;9.760;2023-05-10T14:12:51;7.95;;;6.35;;
56427;SDS011;42331;53.578;9.760;2023-05-10T14:15:22;6.10;;;4.83;;
56427;SDS011;42331;53.578;9.760;2023-05-10T14:17:53;8.90;;;7.00;;
56427;SDS011;42331;53.578;9.760;2023-05-10T14:20:23;9.00;;;6.27;;
56427;SDS011;42331;53.578;9.760;2023-05-10T14:22:54;8.20;;;6.47;;
56427;SDS011;42331;53.578;9.760;2023-05-10T14:25:25;8.15;;;6.22;;
56427;SDS011;42331;53.578;9.760;2023-05-10T14:27:56;7.75;;;6.20;;
56427;SDS011;42331;53.578;9.760;2023-05-10T14:30:26;7.53;;;5.38;;
56427;SDS011;42331;53.578;9.760;2023-05-10T14:32:57;8.00;;;5.88;;
56427;SDS011;42331;53.578;9.760;2023-05-10T14:35:28;8.30;;;6.28;;
56427;SDS011;42331;53.578;9.760;2023-05-10T14:38:02;6.90;;;6.03;;
56427;SDS011;42331;53.578;9.760;2023-05-10T14:40:33;8.93;;;6.25;;
56427;SDS011;42331;53.578;9.760;2023-05-10T14:43:04;6.72;;;5.50;;
56427;SDS011;42331;53.578;9.760;2023-05-10T14:45:35;8.17;;;5.30;;
56427;SDS011;42331;53.578;9.760;2023-05-10T14:48:06;7.70;;;5.55;;
56427;SDS011;42331;53.578;9.760;2023-05-10T14:50:41;7.00;;;5.65;;
56427;SDS011;42331;53.578;9.760;2023-05-10T14:53:11;5.82;;;5.10;;
56427;SDS011;42331;53.578;9.760;2023-05-10T14:55:42;7.87;;;5.47;;
56427;SDS011;42331;53.578;9.760;2023-05-10T14:58:13;7.00;;;5.60;;
56427;SDS011;42331;53.578;9.760;2023-05-10T15:00:44;8.10;;;5.80;;
56427;SDS011;42331;53.578;9.760;2023-05-10T15:03:14;6.30;;;5.17;;
56427;SDS011;42331;53.578;9.760;2023-05-10T15:05:46;6.30;;;4.60;;
56427;SDS011;42331;53.578;9.760;2023-05-10T15:08:17;5.78;;;4.82;;
56427;SDS011;42331;53.578;9.760;2023-05-10T15:10:47;5.83;;;4.70;;
56427;SDS011;42331;53.578;9.760;2023-05-10T15:13:18;6.80;;;4.47;;
56427;SDS011;42331;53.578;9.760;2023-05-10T15:15:49;9.03;;;3.57;;
56427;SDS011;42331;53.578;9.760;2023-05-10T15:18:20;6.65;;;4.55;;
56427;SDS011;42331;53.578;9.760;2023-05-10T15:20:50;5.83;;;4.93;;
56427;SDS011;42331;53.578;9.760;2023-05-10T15:23:21;6.47;;;5.13;;
56427;SDS011;42331;53.578;9.760;2023-05-10T15:25:52;5.73;;;4.80;;
56427;SDS011;42331;53.578;9.760;2023-05-10T15:28:25;6.22;;;5.00;;
56427;SDS011;42331;53.578;9.760;2023-05-10T15:30:56;5.97;;;4.13;;
56427;SDS011;42331;53.578;9.760;2023-05-10T15:33:26;6.97;;;4.60;;
56427;SDS011;42331;53.578;9.760;2023-05-10T15:35:57;8.40;;;5.28;;
56427;SDS011;42331;53.578;9.760;2023-05-10T15:38:28;9.77;;;6.75;;
56427;SDS011;42331;53.578;9.760;2023-05-10T15:40:59;8.30;;;7.38;;
56427;SDS011;42331;53.578;9.760;2023-05-10T15:43:29;8.48;;;6.80;;
56427;SDS011;42331;53.578;9.760;2023-05-10T15:46:00;9.07;;;7.50;;
56427;SDS011;42331;53.578;9.760;2023-05-10T15:48:31;9.68;;;7.82;;
56427;SDS011;42331;53.578;9.760;2023-05-10T15:51:02;7.77;;;6.77;;
56427;SDS011;42331;53.578;9.760;2023-05-10T15:53:33;7.32;;;5.95;;
56427;SDS011;42331;53.578;9.760;2023-05-10T15:56:04;6.57;;;5.88;;
56427;SDS011;42331;53.578;9.760;2023-05-10T15:58:35;7.40;;;5.97;;